createdAt,value
2023-05-20T05:49:23.745Z,17.11
2023-05-20T05:50:26.447Z,17.77
2023-05-20T05:51:29.361Z,17.36
2023-05-20T05:52:32.688Z,17.54
2023-05-20T05:54:52.578Z,18.10
2023-05-20T05:55:54.795Z,18.51
2023-05-20T05:56:57.008Z,18.82
2023-05-20T05:58:02.871Z,18.19
2023-05-20T05:59:07.449Z,18.26
2023-05-20T06:00:14.689Z,18.25
2023-05-20T06:01:23.533Z,18.89
2023-05-20T06:02:28.345Z,19.22
2023-05-20T06:04:55.264Z,18.79
2023-05-20T06:05:58.402Z,19.10
2023-05-20T06:07:00.739Z,19.17
2023-05-20T06:08:03.151Z,19.11
2023-05-20T06:09:09.229Z,19.24
2023-05-20T06:10:11.807Z,18.77
2023-05-20T06:11:13.888Z,19.15
2023-05-20T06:12:17.195Z,18.88
2023-05-20T06:13:22.161Z,18.79
2023-05-20T06:14:24.536Z,19.70
2023-05-20T06:15:29.245Z,18.61
2023-05-20T06:16:32.262Z,18.32
2023-05-20T06:17:38.306Z,18.71
2023-05-20T06:18:41.117Z,18.15
2023-05-20T06:19:44.075Z,18.70
2023-05-20T06:20:46.726Z,18.31
2023-05-20T06:21:49.068Z,18.21
2023-05-20T06:22:51.388Z,18.63
2023-05-20T06:24:01.949Z,19.36
2023-05-20T06:25:04.405Z,19.93
2023-05-20T06:26:09.213Z,20.39
2023-05-20T06:27:11.248Z,20.55
2023-05-20T06:28:14.029Z,19.98
2023-05-20T06:29:18.348Z,20.34
2023-05-20T06:30:21.036Z,20.95
2023-05-20T06:31:23.560Z,21.52
2023-05-20T06:32:28.238Z,21.15
2023-05-20T06:33:31.899Z,21.38
2023-05-20T06:34:37.777Z,20.58
2023-05-20T06:35:39.799Z,20.90
2023-05-20T06:36:41.898Z,21.52
2023-05-20T06:37:44.569Z,21.18
2023-05-20T06:38:47.089Z,21.46
2023-05-20T06:39:54.094Z,20.68
2023-05-20T06:40:56.368Z,20.92
2023-05-20T06:41:58.326Z,21.49
2023-05-20T06:43:05.088Z,21.83
2023-05-20T06:44:40.471Z,22.48
2023-05-20T06:46:08.660Z,22.22
2023-05-20T06:47:16.329Z,23.22
2023-05-20T06:48:19.229Z,22.36
2023-05-20T06:49:21.604Z,21.92
2023-05-20T06:50:25.087Z,22.46
2023-05-20T06:51:28.398Z,21.05
2023-05-20T06:52:30.544Z,20.77
2023-05-20T06:53:32.427Z,21.25
2023-05-20T06:54:40.071Z,21.19
2023-05-20T06:55:42.451Z,20.32
2023-05-20T06:56:45.727Z,20.16
2023-05-20T06:57:50.132Z,19.65
2023-05-20T06:58:57.028Z,20.17
2023-05-20T06:59:59.026Z,20.20
2023-05-20T07:01:01.792Z,19.61
2023-05-20T07:02:04.785Z,20.11
2023-05-20T07:03:07.888Z,20.25
2023-05-20T07:04:10.214Z,19.90
2023-05-20T07:05:13.136Z,21.19
2023-05-20T07:06:15.010Z,22.19
2023-05-20T07:07:18.089Z,21.73
2023-05-20T07:08:21.051Z,21.49
2023-05-20T07:09:24.642Z,20.84
2023-05-20T07:10:26.905Z,20.77
2023-05-20T07:11:29.398Z,21.22
2023-05-20T07:12:36.566Z,21.60
2023-05-20T07:13:43.131Z,21.01
2023-05-20T07:14:45.028Z,21.58
2023-05-20T07:15:47.977Z,22.06
2023-05-20T07:16:50.867Z,22.33
2023-05-20T07:17:53.279Z,22.69
2023-05-20T07:18:56.138Z,21.61
2023-05-20T07:19:58.086Z,21.97
2023-05-20T07:21:03.369Z,21.18
2023-05-20T07:22:23.714Z,21.33
2023-05-20T07:23:44.963Z,20.69
2023-05-20T07:24:47.002Z,21.73
2023-05-20T07:25:49.724Z,22.72
2023-05-20T07:26:51.843Z,21.96
2023-05-20T07:27:54.278Z,22.10
2023-05-20T07:28:56.482Z,22.00
2023-05-20T07:29:58.530Z,21.05
2023-05-20T07:31:00.648Z,20.28
2023-05-20T07:32:08.244Z,21.00
2023-05-20T07:33:11.207Z,21.98
2023-05-20T07:34:13.128Z,22.05
2023-05-20T07:35:15.931Z,21.76
2023-05-20T07:36:19.706Z,21.36
2023-05-20T07:37:24.956Z,21.97
2023-05-20T07:38:27.080Z,22.57
2023-05-20T07:39:36.554Z,22.71
2023-05-20T07:40:40.684Z,23.97
2023-05-20T07:41:43.331Z,24.38
2023-05-20T07:42:47.300Z,23.40
2023-05-20T07:44:03.432Z,22.02
2023-05-20T07:45:10.023Z,21.64
2023-05-20T07:46:14.003Z,22.62
2023-05-20T07:47:16.573Z,23.68
2023-05-20T07:49:40.411Z,22.54
2023-05-20T07:50:44.758Z,21.52
2023-05-20T07:51:47.595Z,22.25
2023-05-20T07:52:56.505Z,22.43
2023-05-20T07:54:03.102Z,21.58
2023-05-20T07:55:05.827Z,22.60
2023-05-20T07:56:07.789Z,22.93
2023-05-20T07:57:09.869Z,23.63
2023-05-20T07:58:12.074Z,24.05
2023-05-20T07:59:15.688Z,22.85
2023-05-20T08:00:21.012Z,21.95
2023-05-20T08:01:22.939Z,21.35
2023-05-20T08:02:25.271Z,21.77
2023-05-20T08:03:27.700Z,22.65
2023-05-20T08:04:37.179Z,22.83
2023-05-20T08:05:42.401Z,23.28
2023-05-20T08:06:44.678Z,22.72
2023-05-20T08:07:52.323Z,23.30
2023-05-20T08:08:57.118Z,24.39
2023-05-20T08:10:05.031Z,23.66
2023-05-20T08:11:07.814Z,23.30
2023-05-20T08:12:09.828Z,22.88
2023-05-20T08:13:11.712Z,21.75
2023-05-20T08:14:15.198Z,22.69
2023-05-20T08:15:19.222Z,22.18
2023-05-20T08:16:22.461Z,21.49
2023-05-20T08:17:31.461Z,21.57
2023-05-20T08:18:36.700Z,21.77
2023-05-20T08:19:39.184Z,21.82
2023-05-20T08:20:44.914Z,21.93
2023-05-20T08:21:47.515Z,22.84
2023-05-20T08:22:49.627Z,22.95
2023-05-20T08:23:53.368Z,23.06
2023-05-20T08:24:55.477Z,22.81
2023-05-20T08:25:58.105Z,22.71
2023-05-20T08:27:01.237Z,22.31
2023-05-20T08:28:09.177Z,21.33
2023-05-20T08:29:14.285Z,21.19
2023-05-20T08:30:20.757Z,21.74
2023-05-20T08:31:25.941Z,21.29
2023-05-20T08:32:29.918Z,21.17
2023-05-20T08:33:34.604Z,21.31
2023-05-20T08:34:37.454Z,21.18
2023-05-20T08:35:42.307Z,21.00
2023-05-20T08:36:46.324Z,20.74
2023-05-20T08:37:57.644Z,20.11
2023-05-20T08:39:00.876Z,20.23
2023-05-20T08:40:07.375Z,20.40
2023-05-20T08:41:09.531Z,20.61
2023-05-20T08:42:14.242Z,20.15
2023-05-20T08:43:16.346Z,20.02
2023-05-20T08:44:19.746Z,20.27
2023-05-20T08:45:26.694Z,20.05
2023-05-20T08:46:31.633Z,20.08
2023-05-20T08:47:34.382Z,19.97
2023-05-20T08:48:42.265Z,20.16
2023-05-20T08:49:49.849Z,19.37
2023-05-20T08:50:53.008Z,19.41
2023-05-20T08:51:56.215Z,19.57
2023-05-20T08:52:59.072Z,19.67
2023-05-20T08:54:03.763Z,19.50
2023-05-20T08:55:10.028Z,19.55
2023-05-20T08:56:13.435Z,20.05
2023-05-20T08:57:17.913Z,19.84
2023-05-20T08:58:21.134Z,19.83
2023-05-20T08:59:23.833Z,19.54
2023-05-20T09:00:29.069Z,19.93
2023-05-20T09:01:31.610Z,19.44
2023-05-20T09:02:33.526Z,19.58
2023-05-20T09:03:35.723Z,19.14
2023-05-20T09:04:38.545Z,19.38
2023-05-20T09:05:52.484Z,19.23
2023-05-20T09:06:56.352Z,19.20
2023-05-20T09:08:08.676Z,19.26
2023-05-20T09:09:12.746Z,19.51
2023-05-20T09:10:15.016Z,19.23
2023-05-20T09:11:17.334Z,18.87
2023-05-20T09:12:21.493Z,19.41
2023-05-20T09:15:32.069Z,19.35
2023-05-20T09:16:35.087Z,18.76
2023-05-20T09:19:08.612Z,18.37
2023-05-20T09:21:52.655Z,18.07
2023-05-20T09:24:25.551Z,18.53
2023-05-20T09:25:33.253Z,18.56
2023-05-20T09:26:36.288Z,19.01
2023-05-20T09:27:46.218Z,19.12
2023-05-20T09:28:48.845Z,18.98
2023-05-20T09:29:52.488Z,19.08
2023-05-20T09:31:00.054Z,19.45
2023-05-20T09:32:05.285Z,19.06
2023-05-20T09:43:55.350Z,18.99
2023-05-20T09:46:21.740Z,19.65
2023-05-20T09:47:25.665Z,19.67
2023-05-20T09:48:58.953Z,19.67
2023-05-20T09:50:04.047Z,19.40
2023-05-20T09:51:10.266Z,19.10
2023-05-20T09:52:21.532Z,19.26
2023-05-20T09:53:30.371Z,19.42
2023-05-20T09:54:36.981Z,19.47
2023-05-20T09:55:39.493Z,19.29
2023-05-20T09:56:42.477Z,18.84
2023-05-20T09:57:45.313Z,18.63
2023-05-20T09:58:48.929Z,18.18
2023-05-20T09:59:53.532Z,18.42
2023-05-20T10:00:55.520Z,18.64
2023-05-20T10:01:57.641Z,18.49
2023-05-20T10:03:00.786Z,18.61
2023-05-20T10:04:06.954Z,18.28
2023-05-20T10:05:16.788Z,17.80
2023-05-20T10:06:40.594Z,17.56
2023-05-20T10:07:58.726Z,17.89
2023-05-20T10:09:19.229Z,17.82
2023-05-20T10:10:28.946Z,18.02
2023-05-20T10:12:02.207Z,17.79
2023-05-20T10:13:29.075Z,17.92
2023-05-20T10:14:46.997Z,17.75
2023-05-20T10:16:07.379Z,17.85
2023-05-20T10:17:15.471Z,17.62
2023-05-20T10:18:35.941Z,17.38
2023-05-20T10:19:38.610Z,17.36
2023-05-20T10:20:49.653Z,17.43
2023-05-20T10:22:04.111Z,17.22
2023-05-20T10:23:06.571Z,17.26
2023-05-20T10:24:12.020Z,17.34
2023-05-20T10:25:27.017Z,17.16
2023-05-20T10:26:36.706Z,17.16
2023-05-20T10:27:46.700Z,16.98
2023-05-20T10:28:49.946Z,16.83
2023-05-20T10:30:03.518Z,17.02
2023-05-20T10:31:21.692Z,16.94
2023-05-20T10:32:58.027Z,17.09
2023-05-20T10:34:00.293Z,17.44
2023-05-20T10:35:10.242Z,17.65
2023-05-20T10:36:31.584Z,17.65
2023-05-20T10:37:44.292Z,17.99
2023-05-20T10:38:57.064Z,17.49
2023-05-20T10:40:25.741Z,17.83
2023-05-20T10:41:29.546Z,18.13
2023-05-20T10:42:31.593Z,17.98
2023-05-20T10:43:33.903Z,18.08
2023-05-20T10:44:48.666Z,18.01
2023-05-20T10:45:56.311Z,18.13
2023-05-20T10:47:24.814Z,18.05
2023-05-20T10:48:35.725Z,18.21
2023-05-20T10:49:46.114Z,17.97
2023-05-20T10:50:48.900Z,18.16
2023-05-20T10:51:51.687Z,18.27
2023-05-20T10:52:53.774Z,18.02
2023-05-20T10:53:56.632Z,18.02
2023-05-20T10:55:01.159Z,17.84
2023-05-20T10:56:04.183Z,17.99
2023-05-20T10:57:10.013Z,17.80
2023-05-20T10:58:12.424Z,17.97
2023-05-20T10:59:16.062Z,17.98
2023-05-20T11:00:24.229Z,17.92
2023-05-20T11:01:45.457Z,18.08
2023-05-20T11:09:13.886Z,18.17
2023-05-20T11:34:25.005Z,17.39
2023-05-20T11:35:33.839Z,17.31
2023-05-20T11:36:44.071Z,17.36
2023-05-20T11:37:55.484Z,17.34
2023-05-20T11:39:24.759Z,17.39
2023-05-20T11:46:52.246Z,17.39
2023-05-20T11:48:08.819Z,17.38
2023-05-20T11:49:24.384Z,17.31
2023-05-20T11:54:35.475Z,17.21
2023-05-20T11:56:00.438Z,17.23
2023-05-20T11:57:49.467Z,17.30
2023-05-20T11:59:16.847Z,17.43
2023-05-20T12:00:31.358Z,17.44
2023-05-20T12:01:44.781Z,17.56
2023-05-20T12:02:54.036Z,17.55
2023-05-20T12:15:08.587Z,17.56
2023-05-20T12:59:44.197Z,18.50
2023-05-20T13:00:46.972Z,18.73
2023-05-20T13:01:49.534Z,18.78
2023-05-20T13:09:35.726Z,18.46
2023-05-20T13:10:39.095Z,18.45
2023-05-20T13:11:41.072Z,18.58
2023-05-20T13:12:46.102Z,18.62
2023-05-20T13:13:48.234Z,18.26
2023-05-20T13:14:52.597Z,18.02
2023-05-20T13:15:55.213Z,18.42
2023-05-20T13:16:57.200Z,18.33
2023-05-20T13:18:01.575Z,18.66
2023-05-20T13:19:03.918Z,18.78
2023-05-20T13:20:07.517Z,18.79
2023-05-20T13:21:10.029Z,18.63
2023-05-20T13:22:12.880Z,18.57
2023-05-20T13:23:14.880Z,18.71
2023-05-20T13:24:17.606Z,18.71
2023-05-20T13:25:20.086Z,18.76
2023-05-20T13:26:24.794Z,18.71
2023-05-20T13:27:26.954Z,18.70
2023-05-20T13:28:29.008Z,18.03
2023-05-20T13:29:31.203Z,18.05
2023-05-20T13:30:34.637Z,17.99
2023-05-20T13:31:37.765Z,17.92
2023-05-20T13:32:40.022Z,17.88
2023-05-20T13:33:46.818Z,18.01
2023-05-20T13:35:26.685Z,18.20
2023-05-20T13:36:28.740Z,17.67
2023-05-20T13:37:30.916Z,17.59
2023-05-20T13:38:35.163Z,17.46
2023-05-20T13:39:38.173Z,17.29
2023-05-20T13:40:42.491Z,17.33
2023-05-20T13:41:44.883Z,17.49
2023-05-20T13:42:49.404Z,17.36
2023-05-20T13:43:51.729Z,17.55
2023-05-20T13:44:54.618Z,17.59
2023-05-20T13:45:59.153Z,17.64
2023-05-20T13:47:01.355Z,17.77
2023-05-20T13:48:03.980Z,17.59
2023-05-20T13:49:06.644Z,17.82
2023-05-20T13:50:09.817Z,17.70
2023-05-20T13:51:12.051Z,17.57
2023-05-20T13:55:38.404Z,17.30
2023-05-20T13:56:47.512Z,17.16
2023-05-20T13:57:49.598Z,17.31
2023-05-20T13:58:51.801Z,17.39
2023-05-20T13:59:56.780Z,17.32
2023-05-20T14:01:02.195Z,17.43
2023-05-20T14:02:04.988Z,17.47
2023-05-20T14:03:09.392Z,17.19
2023-05-20T14:04:14.512Z,16.77
2023-05-20T14:05:16.903Z,16.85
2023-05-20T14:06:24.240Z,16.69
2023-05-20T14:10:00.634Z,16.58
2023-05-20T14:12:18.381Z,16.86
2023-05-20T14:13:32.285Z,16.81
2023-05-20T14:40:05.696Z,17.29
2023-05-20T14:47:37.156Z,17.06
2023-05-20T14:48:59.019Z,17.20
2023-05-20T14:50:02.201Z,17.20
2023-05-20T14:51:04.762Z,17.34
2023-05-20T14:52:08.173Z,17.25
2023-05-20T14:53:10.300Z,17.12
2023-05-20T14:54:12.383Z,17.38
2023-05-20T14:55:14.858Z,17.29
2023-05-20T14:56:22.990Z,17.33
2023-05-20T14:57:55.071Z,17.19
2023-05-20T14:58:59.402Z,17.05
2023-05-20T15:00:03.161Z,17.15
2023-05-20T15:01:07.915Z,17.25
2023-05-20T15:02:10.446Z,17.22
2023-05-20T15:03:14.562Z,17.36
2023-05-20T15:04:19.689Z,17.41
2023-05-20T15:09:07.830Z,17.09
2023-05-20T15:23:52.595Z,17.19
2023-05-20T15:25:15.601Z,17.33
2023-05-20T15:38:33.827Z,17.05
2023-05-20T19:33:19.577Z,13.12
2023-05-20T22:56:34.562Z,12.41
